Time;durP1;ratioP1;P1;durP2;ratioP2;P2;SDS_P1;SDS_P2;PMS_P1;PMS_P2;Temp;Humidity;BMP_temperature;BMP_pressure;BME280_temperature;BME280_humidity;BME280_pressure;Samples;Min_cycle;Max_cycle;Signal;HPM_P1;HPM_P2
2020/12/18 00:01:30;;;;;;;26.77;15.35;;;;;;;-1.58;100.00;101558.31;1825316;77;21173;-57
2020/12/18 00:03:58;;;;;;;25.05;15.15;;;;;;;-1.59;100.00;101564.31;1826438;78;21165;-56
2020/12/18 00:06:33;;;;;;;21.87;12.53;;;;;;;-1.61;100.00;101562.30;1826355;77;21078;-56
2020/12/18 00:09:04;;;;;;;19.02;12.70;;;;;;;-1.62;100.00;101564.48;1824122;78;21426;-57
2020/12/18 00:11:32;;;;;;;19.20;11.28;;;;;;;-1.62;100.00;101558.09;1825099;77;21141;-58
2020/12/18 00:14:00;;;;;;;18.87;11.22;;;;;;;-1.65;100.00;101560.33;1826430;78;21011;-58
2020/12/18 00:16:32;;;;;;;17.62;10.53;;;;;;;-1.65;100.00;101562.89;1822762;77;21100;-60
2020/12/18 00:18:58;;;;;;;14.50;9.65;;;;;;;-1.65;100.00;101563.34;1826407;78;21153;-57
2020/12/18 00:21:27;;;;;;;14.53;8.58;;;;;;;-1.67;100.00;101557.00;1826195;77;21270;-57
2020/12/18 00:23:54;;;;;;;10.98;6.65;;;;;;;-1.67;100.00;101558.73;1826386;78;21066;-56
2020/12/18 00:26:23;;;;;;;12.23;7.80;;;;;;;-1.71;100.00;101557.59;1825487;77;21230;-56
2020/12/18 00:28:51;;;;;;;14.05;8.28;;;;;;;-1.72;100.00;101559.78;1826388;78;21184;-58
2020/12/18 00:31:19;;;;;;;12.20;7.37;;;;;;;-1.73;100.00;101559.87;1822267;77;21165;-55
2020/12/18 00:33:47;;;;;;;13.30;7.90;;;;;;;-1.74;100.00;101559.05;1826392;78;21249;-58
2020/12/18 00:36:15;;;;;;;12.45;7.45;;;;;;;-1.76;100.00;101559.55;1825973;77;21134;-55
2020/12/18 00:38:43;;;;;;;12.25;7.60;;;;;;;-1.75;100.00;101570.14;1824896;78;21109;-56
2020/12/18 00:41:12;;;;;;;12.85;7.45;;;;;;;-1.72;100.00;101557.23;1824005;77;21116;-55
2020/12/18 00:43:40;;;;;;;13.40;8.18;;;;;;;-1.71;100.00;101565.27;1823933;78;21122;-56
2020/12/18 00:46:08;;;;;;;15.13;8.25;;;;;;;-1.68;100.00;101562.20;1826166;77;21202;-59
2020/12/18 00:48:36;;;;;;;17.40;10.05;;;;;;;-1.65;100.00;101562.06;1826157;78;21154;-57
2020/12/18 00:51:06;;;;;;;15.05;9.25;;;;;;;-1.66;100.00;101558.68;1825251;77;21174;-56
2020/12/18 00:53:35;;;;;;;13.98;8.23;;;;;;;-1.62;100.00;101559.37;1826346;78;21298;-56
2020/12/18 00:56:08;;;;;;;12.70;7.85;;;;;;;-1.61;100.00;101552.89;1826363;77;21141;-56
2020/12/18 00:58:36;;;;;;;11.97;7.62;;;;;;;-1.59;100.00;101547.69;1825442;78;21369;-58
2020/12/18 01:01:05;;;;;;;16.48;9.15;;;;;;;-1.59;100.00;101543.44;1795039;77;21170;-58
2020/12/18 01:03:33;;;;;;;21.93;13.78;;;;;;;-1.61;100.00;101536.27;1826043;78;21117;-56
2020/12/18 01:06:09;;;;;;;22.00;14.03;;;;;;;-1.60;100.00;101543.48;1826230;77;21078;-59
2020/12/18 01:08:38;;;;;;;21.30;13.85;;;;;;;-1.59;100.00;101543.86;1826413;78;21113;-57
2020/12/18 01:11:07;;;;;;;21.30;12.45;;;;;;;-1.59;100.00;101543.86;1825910;77;21147;-56
2020/12/18 01:13:36;;;;;;;20.77;11.63;;;;;;;-1.60;100.00;101537.09;1795026;78;21038;-56
2020/12/18 01:16:09;;;;;;;17.90;10.70;;;;;;;-1.60;100.00;101531.98;1826298;77;21173;-59
2020/12/18 01:18:39;;;;;;;15.32;9.93;;;;;;;-1.60;100.00;101542.20;1794079;78;21138;-55
2020/12/18 01:21:09;;;;;;;15.25;9.55;;;;;;;-1.60;100.00;101543.03;1797081;78;21029;-58
2020/12/18 01:23:38;;;;;;;15.80;9.68;;;;;;;-1.60;100.00;101535.81;1800931;79;22400;-56
2020/12/18 01:26:07;;;;;;;13.25;8.25;;;;;;;-1.59;100.00;101533.20;1826104;77;21177;-58
2020/12/18 01:28:36;;;;;;;14.35;8.80;;;;;;;-1.60;100.00;101534.09;1826309;78;21145;-59
2020/12/18 01:31:04;;;;;;;15.50;8.58;;;;;;;-1.59;100.00;101533.62;1826259;77;21235;-59
2020/12/18 01:33:34;;;;;;;13.22;7.85;;;;;;;-1.61;100.00;101531.16;1825218;78;21222;-58
2020/12/18 01:36:05;;;;;;;12.13;7.92;;;;;;;-1.60;100.00;101529.42;1825699;77;22311;-56
2020/12/18 01:38:35;;;;;;;12.18;6.92;;;;;;;-1.59;100.00;101522.13;1825447;78;21161;-56
2020/12/18 01:41:04;;;;;;;13.55;8.05;;;;;;;-1.59;100.00;101519.14;1826213;77;21050;-57
2020/12/18 01:43:32;;;;;;;17.17;9.40;;;;;;;-1.59;100.00;101520.84;1826249;78;20991;-56
2020/12/18 01:46:05;;;;;;;15.53;9.58;;;;;;;-1.61;100.00;101517.55;1826251;78;21567;-59
2020/12/18 01:48:33;;;;;;;16.42;9.93;;;;;;;-1.61;100.00;101517.55;1825752;78;21168;-57
2020/12/18 01:51:03;;;;;;;14.78;8.58;;;;;;;-1.62;100.00;101509.52;1796986;77;21196;-59
2020/12/18 01:53:31;;;;;;;15.50;8.95;;;;;;;-1.62;100.00;101511.61;1826318;78;21158;-57
2020/12/18 01:56:10;;;;;;;15.23;8.77;;;;;;;-1.57;100.00;101508.83;1878238;76;22254;-58
2020/12/18 01:58:41;;;;;;;15.55;10.20;;;;;;;-1.61;100.00;101516.27;1820711;77;20954;-57
2020/12/18 02:01:10;;;;;;;20.23;10.50;;;;;;;-1.60;100.00;101517.92;1820729;77;22281;-59
2020/12/18 02:03:40;;;;;;;16.52;10.05;;;;;;;-1.59;100.00;101518.29;1818629;77;20976;-56
2020/12/18 02:06:21;;;;;;;14.10;9.63;;;;;;;-1.57;100.00;101517.78;1827230;77;21061;-59
2020/12/18 02:08:51;;;;;;;13.43;8.65;;;;;;;-1.59;100.00;101513.17;1819380;77;21558;-55
2020/12/18 02:11:34;;;;;;;15.97;9.40;;;;;;;-1.57;100.00;101514.77;1870595;75;22569;-55
2020/12/18 02:14:05;;;;;;;16.97;9.43;;;;;;;-1.63;100.00;101520.19;1859540;77;20969;-58
2020/12/18 02:16:35;;;;;;;20.70;10.20;;;;;;;-1.63;100.00;101521.89;1829249;77;21322;-55
2020/12/18 02:19:05;;;;;;;12.88;8.00;;;;;;;-1.64;100.00;101524.91;1862629;77;27166;-58
2020/12/18 02:21:38;;;;;;;15.30;9.55;;;;;;;-1.63;100.00;101525.73;1837387;77;21518;-55
2020/12/18 02:24:08;;;;;;;14.07;9.08;;;;;;;-1.63;100.00;101529.56;1859389;77;20967;-57
2020/12/18 02:26:37;;;;;;;15.18;9.68;;;;;;;-1.63;100.00;101530.84;1858648;77;20989;-56
2020/12/18 02:29:06;;;;;;;16.17;9.68;;;;;;;-1.65;100.00;101527.09;1833047;77;21367;-58
2020/12/18 02:31:36;;;;;;;13.88;9.48;;;;;;;-1.66;100.00;101534.39;1854802;77;20922;-56
2020/12/18 02:34:13;;;;;;;14.40;9.60;;;;;;;-1.63;100.00;101533.40;1825817;76;22620;-55
2020/12/18 02:36:43;;;;;;;14.50;8.55;;;;;;;-1.68;100.00;101531.07;1789055;78;20980;-55
2020/12/18 02:39:12;;;;;;;16.80;8.60;;;;;;;-1.70;100.00;101530.33;1782310;80;22422;-60
2020/12/18 02:41:42;;;;;;;15.05;9.10;;;;;;;-1.70;100.00;101538.00;1774186;80;21021;-56
2020/12/18 02:44:19;;;;;;;14.70;8.43;;;;;;;-1.64;100.00;101536.87;1864711;75;22619;-58
2020/12/18 02:46:53;;;;;;;16.02;9.28;;;;;;;-1.70;100.00;101535.44;1784655;78;20990;-58
2020/12/18 02:49:21;;;;;;;19.37;10.35;;;;;;;-1.70;100.00;101538.00;1792661;80;21194;-56
2020/12/18 02:51:50;;;;;;;15.00;9.33;;;;;;;-1.70;100.00;101536.72;1788535;79;20972;-58
2020/12/18 02:54:40;;;;;;;15.90;9.30;;;;;;;-1.65;100.00;101533.94;1867346;75;22623;-55
2020/12/18 02:57:10;;;;;;;20.35;10.15;;;;;;;-1.69;100.00;101534.98;1836098;77;20903;-58
2020/12/18 02:59:54;;;;;;;15.57;9.13;;;;;;;-1.64;100.00;101533.03;1869061;76;22647;-57
2020/12/18 03:02:22;;;;;;;13.70;8.38;;;;;;;-1.69;100.00;101531.16;1829053;77;21046;-58
2020/12/18 03:04:52;;;;;;;15.20;8.85;;;;;;;-1.67;100.00;101530.61;1737609;80;22183;-58
2020/12/18 03:07:30;;;;;;;16.53;9.20;;;;;;;-1.63;100.00;101529.56;1877705;76;22649;-57
2020/12/18 03:09:58;;;;;;;17.12;9.33;;;;;;;-1.67;100.00;101532.72;1820447;78;21006;-58
2020/12/18 03:12:26;;;;;;;15.00;9.05;;;;;;;-1.66;100.00;101536.13;1816565;78;21360;-56
2020/12/18 03:14:54;;;;;;;17.52;8.70;;;;;;;-1.66;100.00;101536.95;1819828;78;21037;-56
2020/12/18 03:17:24;;;;;;;11.60;7.70;;;;;;;-1.65;100.00;101537.77;1777028;79;21022;-57
2020/12/18 03:19:54;;;;;;;15.83;9.23;;;;;;;-1.64;100.00;101536.87;1819140;78;21021;-55
2020/12/18 03:22:26;;;;;;;14.87;7.80;;;;;;;-1.64;100.00;101541.52;1774254;80;21026;-55
2020/12/18 03:25:16;;;;;;;16.27;9.47;;;;;;;-1.59;100.00;101541.30;1885335;74;22553;-56
2020/12/18 03:27:53;;;;;;;14.63;8.93;;;;;;;-1.63;100.00;101547.46;1821613;77;20899;-56
2020/12/18 03:30:21;;;;;;;13.83;8.48;;;;;;;-1.64;100.00;101542.80;1753548;80;21210;-55
2020/12/18 03:32:51;;;;;;;13.62;8.48;;;;;;;-1.63;100.00;101552.15;1775685;78;20961;-55
2020/12/18 03:35:20;;;;;;;14.45;9.45;;;;;;;-1.61;100.00;101550.78;1778009;79;21027;-56
2020/12/18 03:37:49;;;;;;;17.80;9.93;;;;;;;-1.63;100.00;101551.30;1777632;79;20990;-58
2020/12/18 03:40:20;;;;;;;16.27;10.10;;;;;;;-1.63;100.00;101551.30;1779379;80;21007;-58
2020/12/18 03:42:49;;;;;;;17.35;9.90;;;;;;;-1.62;100.00;101555.53;1779012;79;21574;-56
2020/12/18 03:45:19;;;;;;;15.88;8.85;;;;;;;-1.61;100.00;101556.73;1783554;80;21019;-58
2020/12/18 03:48:06;;;;;;;18.15;10.63;;;;;;;-1.57;100.00;101559.97;1835101;76;27876;-58
2020/12/18 03:50:42;;;;;;;14.28;9.10;;;;;;;-1.58;100.00;101555.30;1840151;77;20948;-55
2020/12/18 03:53:12;;;;;;;14.05;8.90;;;;;;;-1.53;100.00;101553.80;1832256;77;21363;-56
2020/12/18 03:55:42;;;;;;;15.75;9.60;;;;;;;-1.53;100.00;101553.80;1827672;77;21040;-56
2020/12/18 03:58:29;;;;;;;16.97;10.18;;;;;;;-1.54;100.00;101552.16;1834730;77;21043;-59
2020/12/18 04:00:59;;;;;;;18.73;11.12;;;;;;;-1.55;100.00;101552.61;1823974;77;21013;-59
2020/12/18 04:03:27;;;;;;;14.10;9.60;;;;;;;-1.54;100.00;101555.53;1836270;77;20945;-56
2020/12/18 04:05:56;;;;;;;20.00;11.90;;;;;;;-1.54;100.00;101558.55;1826729;76;21274;-59
2020/12/18 04:08:24;;;;;;;19.98;11.93;;;;;;;-1.54;100.00;101554.26;1824398;77;20974;-59
2020/12/18 04:11:13;;;;;;;18.83;11.67;;;;;;;-1.48;100.00;101554.40;1868075;75;22754;-58
2020/12/18 04:13:45;;;;;;;18.95;11.60;;;;;;;-1.51;100.00;101555.39;1800982;79;21057;-58
2020/12/18 04:16:14;;;;;;;22.05;10.82;;;;;;;-1.50;100.00;101554.48;1783525;80;21393;-58
2020/12/18 04:18:43;;;;;;;18.45;10.88;;;;;;;-1.49;100.00;101555.31;1802103;79;20999;-56
2020/12/18 04:21:13;;;;;;;19.42;11.70;;;;;;;-1.49;100.00;101557.87;1781819;80;21018;-56
2020/12/18 04:23:43;;;;;;;16.93;10.70;;;;;;;-1.49;100.00;101560.42;1799083;79;20939;-56
2020/12/18 04:26:13;;;;;;;18.95;10.70;;;;;;;-1.47;100.00;101566.31;1806022;78;21017;-56
2020/12/18 04:28:41;;;;;;;18.20;10.48;;;;;;;-1.47;100.00;101571.42;1767803;79;21207;-56
2020/12/18 04:31:09;;;;;;;18.00;10.88;;;;;;;-1.45;100.00;101572.16;1784427;80;21073;-56
2020/12/18 04:33:38;;;;;;;18.82;10.88;;;;;;;-1.45;100.00;101572.16;1789363;80;21014;-57
2020/12/18 04:36:06;;;;;;;20.92;13.28;;;;;;;-1.44;100.00;101560.20;1785344;80;21196;-56
2020/12/18 04:38:36;;;;;;;18.45;11.05;;;;;;;-1.42;100.00;101568.64;1798585;79;21622;-57
2020/12/18 04:41:07;;;;;;;17.40;10.63;;;;;;;-1.41;100.00;101568.55;1784982;80;21374;-57
2020/12/18 04:43:37;;;;;;;15.50;10.48;;;;;;;-1.42;100.00;101569.46;1787010;79;21628;-57
2020/12/18 04:46:07;;;;;;;18.80;10.82;;;;;;;-1.41;100.00;101572.84;1757937;80;21034;-57
2020/12/18 04:48:37;;;;;;;15.78;10.58;;;;;;;-1.42;100.00;101574.58;1756783;80;21159;-57
2020/12/18 04:51:08;;;;;;;16.85;10.82;;;;;;;-1.41;100.00;101571.11;1771876;79;21137;-56
2020/12/18 04:53:38;;;;;;;19.60;11.83;;;;;;;-1.40;100.00;101570.23;1742840;79;21363;-57
2020/12/18 04:56:24;;;;;;;18.73;11.97;;;;;;;-1.35;100.00;101569.55;1831468;76;22277;-56
2020/12/18 04:58:56;;;;;;;17.85;12.13;;;;;;;-1.37;100.00;101572.62;1780329;80;20972;-56
2020/12/18 05:01:26;;;;;;;23.60;15.68;;;;;;;-1.35;100.00;101574.66;1779097;79;21390;-57
2020/12/18 05:03:59;;;;;;;25.23;15.90;;;;;;;-1.33;100.00;101574.12;1779339;80;21033;-56
2020/12/18 05:06:28;;;;;;;22.50;14.50;;;;;;;-1.29;100.00;101570.97;1783319;79;20963;-56
2020/12/18 05:08:57;;;;;;;26.23;18.12;;;;;;;-1.28;100.00;101570.91;1764488;80;21007;-57
2020/12/18 05:11:27;;;;;;;19.07;13.25;;;;;;;-1.26;100.00;101566.98;1769957;80;21078;-57
2020/12/18 05:14:05;;;;;;;21.07;14.63;;;;;;;-1.25;100.00;101566.94;1780958;80;21354;-56
2020/12/18 05:16:35;;;;;;;20.55;15.60;;;;;;;-1.25;100.00;101568.63;1777365;80;21501;-56
2020/12/18 05:19:15;;;;;;;22.05;14.70;;;;;;;-1.24;100.00;101569.03;1766528;80;21040;-57
2020/12/18 05:21:56;;;;;;;21.90;14.87;;;;;;;-1.19;100.00;101572.64;1871502;76;23274;-57
2020/12/18 05:24:26;;;;;;;23.18;14.40;;;;;;;-1.22;100.00;101576.16;1790332;78;20983;-57
2020/12/18 05:26:55;;;;;;;21.20;13.32;;;;;;;-1.20;100.00;101575.66;1791791;78;21377;-57
2020/12/18 05:29:23;;;;;;;20.48;13.70;;;;;;;-1.18;100.00;101583.24;1820873;78;21655;-57
2020/12/18 05:32:12;;;;;;;19.23;12.63;;;;;;;-1.17;100.00;101583.64;1824609;77;20994;-57
2020/12/18 05:34:53;;;;;;;20.03;13.40;;;;;;;-1.11;100.00;101580.77;1812661;76;22762;-57
2020/12/18 05:37:35;;;;;;;21.40;13.72;;;;;;;-1.13;100.00;101583.41;1789997;79;21537;-57
2020/12/18 05:40:05;;;;;;;23.15;14.18;;;;;;;-1.10;100.00;101586.25;1796442;78;21450;-56
2020/12/18 05:42:49;;;;;;;23.47;13.23;;;;;;;-1.04;100.00;101578.28;1867416;76;22666;-57
2020/12/18 05:45:19;;;;;;;22.77;15.08;;;;;;;-1.06;100.00;101586.47;1836273;77;21030;-56
2020/12/18 05:48:09;;;;;;;29.00;16.23;;;;;;;-1.02;100.00;101586.73;1817044;76;22735;-57
2020/12/18 05:50:47;;;;;;;26.65;17.27;;;;;;;-1.07;100.00;101589.95;1728039;80;21084;-56
2020/12/18 05:53:15;;;;;;;23.80;15.23;;;;;;;-1.05;100.00;101594.55;1784025;79;21271;-56
2020/12/18 05:55:45;;;;;;;25.43;15.70;;;;;;;-1.05;100.00;101594.09;1783446;80;21650;-59
2020/12/18 05:58:26;;;;;;;23.43;15.13;;;;;;;-0.97;100.00;101594.17;1834539;76;22703;-56
2020/12/18 06:01:00;;;;;;;20.48;13.85;;;;;;;-1.00;100.00;101596.42;1807121;77;21042;-56
2020/12/18 06:03:44;;;;;;;21.73;14.17;;;;;;;-0.92;100.00;101591.75;1875207;75;22752;-56
2020/12/18 06:06:13;;;;;;;20.37;13.15;;;;;;;-0.94;100.00;101599.97;1837614;77;20986;-57
2020/12/18 06:08:42;;;;;;;25.23;15.23;;;;;;;-0.92;100.00;101600.70;1825599;77;21438;-58
2020/12/18 06:11:13;;;;;;;21.68;14.58;;;;;;;-0.89;100.00;101602.30;1857012;77;21013;-55
2020/12/18 06:13:43;;;;;;;23.42;14.70;;;;;;;-0.86;100.00;101600.88;1853500;77;20914;-57
2020/12/18 06:16:17;;;;;;;25.37;15.93;;;;;;;-0.83;100.00;101601.55;1856981;77;21032;-57
2020/12/18 06:18:47;;;;;;;24.32;16.40;;;;;;;-0.80;100.00;101604.39;1850487;77;21640;-58
2020/12/18 06:21:17;;;;;;;26.17;16.80;;;;;;;-0.77;100.00;101601.22;1802661;77;21374;-57
2020/12/18 06:23:48;;;;;;;24.67;16.80;;;;;;;-0.72;100.00;101602.72;1823687;77;20957;-57
2020/12/18 06:26:27;;;;;;;23.93;16.00;;;;;;;-0.65;100.00;101598.95;1878408;75;22632;-55
2020/12/18 06:29:07;;;;;;;23.55;16.02;;;;;;;-0.66;100.00;101608.37;1841363;77;20988;-58
2020/12/18 06:31:37;;;;;;;25.80;17.10;;;;;;;-0.62;100.00;101605.20;1842235;77;21571;-56
2020/12/18 06:34:25;;;;;;;30.30;19.77;;;;;;;-0.59;100.00;101604.59;1839455;77;21005;-57
2020/12/18 06:37:26;;;;;;;26.17;16.52;;;;;;;-0.54;100.00;101601.80;1847524;77;20970;-57
2020/12/18 06:39:56;;;;;;;24.27;16.77;;;;;;;-0.48;100.00;101604.05;1840617;77;20917;-57
2020/12/18 06:42:47;;;;;;;27.27;18.70;;;;;;;-0.42;100.00;101605.00;1841428;77;20986;-59
2020/12/18 06:45:34;;;;;;;24.80;16.50;;;;;;;-0.32;100.00;101603.63;1835078;76;23272;-58
2020/12/18 06:48:27;;;;;;;25.45;17.20;;;;;;;-0.31;100.00;101612.14;1780240;79;20926;-58
2020/12/18 06:51:29;;;;;;;20.62;14.33;;;;;;;-0.28;100.00;101607.69;1731404;80;21221;-56
2020/12/18 06:54:18;;;;;;;26.63;16.83;;;;;;;-0.21;100.00;101616.34;1861912;75;22659;-58
2020/12/18 06:56:49;;;;;;;25.80;17.07;;;;;;;-0.26;100.00;101612.29;1832744;77;20933;-58
2020/12/18 06:59:26;;;;;;;22.27;15.33;;;;;;;-0.19;100.00;101614.52;1781849;78;22705;-57
2020/12/18 07:01:55;;;;;;;24.23;16.42;;;;;;;-0.22;100.00;101622.39;1744780;80;20904;-57
2020/12/18 07:04:23;;;;;;;24.10;17.05;;;;;;;-0.20;100.00;101621.84;1740115;82;21216;-58
2020/12/18 07:06:51;;;;;;;27.42;18.05;;;;;;;-0.16;100.00;101624.61;1738433;82;20968;-59
2020/12/18 07:09:20;;;;;;;25.90;17.48;;;;;;;-0.11;100.00;101621.38;1711031;83;21423;-59
2020/12/18 07:11:48;;;;;;;26.02;16.77;;;;;;;-0.08;100.00;101622.01;1670813;85;20960;-58
2020/12/18 07:14:16;;;;;;;24.60;15.45;;;;;;;-0.07;100.00;101621.58;1653863;83;21066;-58
2020/12/18 07:16:56;;;;;;;26.65;16.35;;;;;;;-0.03;100.00;101625.64;1681945;84;21208;-60
2020/12/18 07:19:24;;;;;;;23.55;15.13;;;;;;;0.01;100.00;101635.27;1682546;84;21034;-61
2020/12/18 07:22:09;;;;;;;28.73;17.40;;;;;;;0.08;100.00;101634.87;1872408;76;22729;-60
2020/12/18 07:24:37;;;;;;;24.67;17.75;;;;;;;0.07;100.00;101636.22;1798953;79;20974;-60
2020/12/18 07:27:05;;;;;;;23.30;16.52;;;;;;;0.09;100.00;101635.23;1783804;80;21145;-58
2020/12/18 07:29:33;;;;;;;26.17;17.87;;;;;;;0.10;100.00;101631.75;1804647;79;21015;-62
2020/12/18 07:32:03;;;;;;;23.38;15.20;;;;;;;0.12;100.00;101632.52;1755979;80;20982;-57
2020/12/18 07:34:31;;;;;;;24.85;17.70;;;;;;;0.13;100.00;101632.05;1801827;79;21061;-61
2020/12/18 07:37:12;;;;;;;21.05;14.07;;;;;;;0.13;100.00;101635.90;1795047;79;20955;-57
2020/12/18 07:39:40;;;;;;;22.98;15.88;;;;;;;0.12;100.00;101635.08;1781128;80;21366;-58
2020/12/18 07:42:08;;;;;;;20.10;13.85;;;;;;;0.10;100.00;101640.73;1767952;80;20963;-58
2020/12/18 07:44:37;;;;;;;22.13;14.95;;;;;;;0.09;100.00;101644.66;1783130;80;21066;-58
2020/12/18 07:47:06;;;;;;;21.10;13.62;;;;;;;0.07;100.00;101645.19;1781640;80;20947;-58
2020/12/18 07:49:34;;;;;;;23.38;14.68;;;;;;;0.04;100.00;101644.91;1800487;79;21018;-60
2020/12/18 07:52:07;;;;;;;22.15;14.78;;;;;;;0.02;100.00;101648.45;1804651;78;21184;-62
2020/12/18 07:54:35;;;;;;;19.48;14.03;;;;;;;-0.02;100.00;101648.61;1788710;80;20954;-61
2020/12/18 07:57:08;;;;;;;22.70;15.78;;;;;;;-0.02;100.00;101653.73;1797954;79;20994;-59
2020/12/18 07:59:35;;;;;;;25.57;17.05;;;;;;;-0.03;100.00;101650.81;1781583;80;20982;-59
2020/12/18 08:02:04;;;;;;;24.52;17.75;;;;;;;-0.03;100.00;101654.66;1781061;80;21006;-57
2020/12/18 08:04:32;;;;;;;28.87;18.80;;;;;;;0.00;100.00;101653.68;1802735;79;21114;-57
2020/12/18 08:07:00;;;;;;;22.70;16.15;;;;;;;0.03;100.00;101657.34;1784864;80;21199;-57
2020/12/18 08:09:29;;;;;;;24.18;15.70;;;;;;;0.05;100.00;101654.25;1806276;79;21050;-56
2020/12/18 08:11:57;;;;;;;22.90;16.35;;;;;;;0.08;100.00;101651.99;1781773;80;20926;-59
2020/12/18 08:14:25;;;;;;;19.57;13.70;;;;;;;0.10;100.00;101654.83;1742474;81;21142;-59
2020/12/18 08:16:53;;;;;;;21.37;13.85;;;;;;;0.09;100.00;101651.90;1777532;80;21377;-61
2020/12/18 08:19:21;;;;;;;21.15;14.18;;;;;;;0.08;100.00;101654.55;1805683;78;21136;-62
2020/12/18 08:21:50;;;;;;;27.10;16.52;;;;;;;0.08;100.00;101654.09;1803535;79;21141;-58
2020/12/18 08:24:30;;;;;;;21.30;14.47;;;;;;;0.10;100.00;101652.27;1802550;79;21144;-65
2020/12/18 08:27:18;;;;;;;22.65;15.28;;;;;;;0.11;100.00;101646.22;1801187;78;21510;-63
2020/12/18 08:29:46;;;;;;;20.92;14.53;;;;;;;0.14;100.00;101652.93;1809007;78;21132;-64
2020/12/18 08:32:22;;;;;;;30.27;17.25;;;;;;;0.14;100.00;101653.75;1782030;80;21053;-63
2020/12/18 08:34:50;;;;;;;43.58;26.82;;;;;;;0.14;100.00;101652.47;1800808;79;20931;-66
2020/12/18 08:37:22;;;;;;;39.48;29.00;;;;;;;0.17;100.00;101647.64;1772110;80;21104;-65
2020/12/18 08:39:50;;;;;;;66.67;47.80;;;;;;;0.18;100.00;101644.98;1788984;80;21065;-65
2020/12/18 08:42:18;;;;;;;52.20;38.60;;;;;;;0.19;100.00;101638.97;1769151;80;21268;-64
2020/12/18 08:44:46;;;;;;;33.85;23.95;;;;;;;0.22;100.00;101643.91;1780201;80;21085;-63
2020/12/18 08:47:25;;;;;;;32.05;19.00;;;;;;;0.24;100.00;101637.44;1798300;79;21050;-65
2020/12/18 08:49:55;;;;;;;28.57;17.65;;;;;;;0.27;100.00;101635.17;1801641;79;21014;-65
2020/12/18 08:52:28;;;;;;;30.75;21.90;;;;;;;0.27;100.00;101629.59;1782650;80;21155;-64
2020/12/18 08:55:07;;;;;;;29.07;18.92;;;;;;;0.28;100.00;101629.13;1784123;80;22255;-66
2020/12/18 08:57:38;;;;;;;27.82;18.95;;;;;;;0.32;100.00;101629.33;1783057;80;22457;-63
2020/12/18 09:00:15;;;;;;;;;;;;;;;0.32;100.00;101635.74;1780955;80;21109;-64
2020/12/18 09:02:51;;;;;;;27.52;17.60;;;;;;;0.32;100.00;101639.12;1779561;80;20258;-64
2020/12/18 09:05:36;;;;;;;27.50;16.80;;;;;;;0.32;100.00;101637.02;1775879;80;21190;-64
2020/12/18 09:08:07;;;;;;;31.45;19.42;;;;;;;0.31;100.00;101636.66;1778016;80;21206;-63
2020/12/18 09:10:45;;;;;;;26.40;17.00;;;;;;;0.34;100.00;101639.03;1782195;79;21120;-63
2020/12/18 09:13:23;;;;;;;30.05;19.05;;;;;;;0.37;100.00;101640.16;1795827;79;21018;-62
2020/12/18 09:16:03;;;;;;;32.55;21.27;;;;;;;0.37;100.00;101640.16;1783092;80;21117;-62
2020/12/18 09:18:44;;;;;;;27.55;18.65;;;;;;;0.41;100.00;101633.48;1801331;79;21010;-61
2020/12/18 09:21:15;;;;;;;21.52;13.28;;;;;;;0.43;100.00;101633.42;1787853;80;21381;-60
2020/12/18 09:23:46;;;;;;;18.02;11.15;;;;;;;0.44;100.00;101632.50;1785071;80;21170;-63
2020/12/18 09:26:26;;;;;;;31.20;21.48;;;;;;;0.47;100.00;101629.78;1797234;79;21603;-60
2020/12/18 09:28:54;;;;;;;23.85;16.87;;;;;;;0.52;100.00;101632.91;1784291;80;21168;-62
2020/12/18 09:31:25;;;;;;;25.68;17.92;;;;;;;0.53;100.00;101634.58;1766291;81;21290;-61
2020/12/18 09:33:53;;;;;;;27.27;20.88;;;;;;;0.54;100.00;101631.56;1776413;80;22393;-60
2020/12/18 09:36:22;;;;;;;24.70;16.85;;;;;;;0.55;100.00;101634.48;1802080;79;21098;-60
2020/12/18 09:38:54;;;;;;;23.35;16.50;;;;;;;0.55;100.00;101634.48;1804901;78;21042;-61
2020/12/18 09:41:22;;;;;;;20.08;13.58;;;;;;;0.55;100.00;101639.16;1777464;79;21312;-61
2020/12/18 09:43:51;;;;;;;19.90;13.70;;;;;;;0.57;100.00;101636.06;1805197;78;21177;-60
2020/12/18 09:46:22;;;;;;;18.82;13.25;;;;;;;0.57;100.00;101634.78;1794435;79;21210;-60
2020/12/18 09:48:49;;;;;;;27.48;16.40;;;;;;;0.59;100.00;101634.23;1802636;79;21180;-61
2020/12/18 09:51:18;;;;;;;22.58;14.68;;;;;;;0.64;100.00;101636.53;1778457;80;21030;-60
2020/12/18 09:53:47;;;;;;;18.95;11.20;;;;;;;0.68;100.00;101642.72;1786998;80;21128;-61
2020/12/18 09:56:15;;;;;;;20.17;13.13;;;;;;;0.71;100.00;101635.28;1802277;79;21061;-62
2020/12/18 09:58:44;;;;;;;19.87;12.88;;;;;;;0.74;100.00;101629.98;1808704;78;22099;-62
2020/12/18 10:01:20;;;;;;;17.40;11.65;;;;;;;0.77;100.00;101634.95;1783235;80;21486;-62
2020/12/18 10:03:50;;;;;;;18.27;12.18;;;;;;;0.78;100.00;101633.20;1782643;80;20994;-61
2020/12/18 10:06:26;;;;;;;13.83;9.05;;;;;;;0.76;100.00;101629.89;1780963;80;21546;-62
2020/12/18 10:08:55;;;;;;;11.88;7.47;;;;;;;0.71;100.00;101622.45;1799996;79;21149;-63
2020/12/18 10:11:48;;;;;;;66.37;46.60;;;;;;;0.68;100.00;101622.19;1776739;80;21269;-61
2020/12/18 10:14:16;;;;;;;39.65;31.15;;;;;;;0.68;100.00;101622.19;1740108;81;21186;-61
2020/12/18 10:16:44;;;;;;;28.10;21.82;;;;;;;0.71;100.00;101623.27;1783939;79;21555;-62
2020/12/18 10:19:13;;;;;;;22.62;15.45;;;;;;;0.72;100.00;101623.67;1774234;80;21169;-63
2020/12/18 10:21:41;;;;;;;21.77;15.98;;;;;;;0.72;100.00;101623.67;1774712;80;21485;-64
2020/12/18 10:24:09;;;;;;;23.40;15.20;;;;;;;0.71;100.00;101609.62;1775862;80;22084;-62
2020/12/18 10:26:39;;;;;;;23.18;15.13;;;;;;;0.71;100.00;101610.44;1766939;79;21019;-61
2020/12/18 10:29:07;;;;;;;17.07;12.07;;;;;;;0.73;100.00;101611.20;1780607;80;21175;-62
2020/12/18 10:31:35;;;;;;;20.05;14.10;;;;;;;0.74;100.00;101613.30;1766498;80;21215;-60
2020/12/18 10:34:04;;;;;;;21.30;15.20;;;;;;;0.73;100.00;101606.06;1777940;80;21140;-61
2020/12/18 10:36:33;;;;;;;25.10;16.07;;;;;;;0.75;100.00;101602.58;1777454;80;21365;-61
2020/12/18 10:39:01;;;;;;;22.07;13.88;;;;;;;0.77;100.00;101597.73;1774923;80;21614;-62
2020/12/18 10:41:29;;;;;;;22.90;15.55;;;;;;;0.79;100.00;101593.78;1773728;80;21142;-59
2020/12/18 10:43:59;;;;;;;24.10;15.93;;;;;;;0.82;100.00;101597.47;1771833;80;21693;-61
2020/12/18 10:46:27;;;;;;;20.23;13.93;;;;;;;0.85;100.00;101597.30;1771692;79;20974;-60
2020/12/18 10:48:55;;;;;;;20.50;14.23;;;;;;;0.87;100.00;101600.59;1770335;80;21294;-62
2020/12/18 10:51:23;;;;;;;19.80;13.85;;;;;;;0.88;100.00;101595.85;1775923;80;21973;-62
2020/12/18 10:53:51;;;;;;;20.10;13.48;;;;;;;0.89;100.00;101594.47;1766685;79;21045;-61
2020/12/18 10:56:19;;;;;;;20.48;13.30;;;;;;;0.92;100.00;101596.04;1766861;79;21089;-59
2020/12/18 10:58:48;;;;;;;16.87;11.85;;;;;;;0.96;100.00;101598.80;1769252;80;21092;-62
2020/12/18 11:01:17;;;;;;;14.80;10.05;;;;;;;0.96;100.00;101598.34;1775037;80;21250;-61
2020/12/18 11:03:45;;;;;;;16.87;11.25;;;;;;;0.97;100.00;101599.16;1739998;81;21174;-59
2020/12/18 11:06:14;;;;;;;17.15;12.07;;;;;;;0.96;100.00;101599.63;1773495;80;21141;-59
2020/12/18 11:08:42;;;;;;;14.40;10.63;;;;;;;0.97;100.00;101598.70;1739787;80;21199;-61
2020/12/18 11:11:14;;;;;;;16.20;11.25;;;;;;;0.96;100.00;101595.77;1770885;80;21184;-61
2020/12/18 11:13:42;;;;;;;16.37;10.50;;;;;;;0.96;100.00;101598.34;1772318;80;21333;-61
2020/12/18 11:16:11;;;;;;;12.63;8.78;;;;;;;0.96;100.00;101598.80;1767421;79;21080;-62
2020/12/18 11:18:40;;;;;;;16.32;10.25;;;;;;;0.96;100.00;101596.23;1767207;80;21274;-61
2020/12/18 11:21:08;;;;;;;12.03;8.30;;;;;;;0.94;100.00;101595.48;1741061;81;21338;-60
2020/12/18 11:23:36;;;;;;;13.05;7.75;;;;;;;0.92;100.00;101594.30;1744373;80;21164;-61
2020/12/18 11:26:05;;;;;;;13.95;8.68;;;;;;;0.89;100.00;101585.48;1758112;79;21158;-60
2020/12/18 11:28:33;;;;;;;13.48;9.43;;;;;;;0.89;100.00;101592.36;1774298;80;21033;-61